Time;durP1;ratioP1;P1;durP2;ratioP2;P2;SDS_P1;SDS_P2;PMS_P1;PMS_P2;Temp;Humidity;BMP_temperature;BMP_pressure;BME280_temperature;BME280_humidity;BME280_pressure;Samples;Min_cycle;Max_cycle;Signal;HPM_P1;HPM_P2
2022/03/26 00:00:47;;;;;;;27.05;13.95;;;9.50;70.30;;;;;;5114385;28;20047;-64
2022/03/26 00:03:51;;;;;;;29.63;14.23;;;9.60;70.50;;;;;;5114162;28;20042;-64
2022/03/26 00:06:55;;;;;;;22.63;12.20;;;9.60;70.60;;;;;;5112019;28;20401;-65
2022/03/26 00:09:59;;;;;;;23.75;12.85;;;9.50;71.00;;;;;;5113727;28;20050;-64
2022/03/26 00:13:03;;;;;;;20.70;12.05;;;9.40;71.40;;;;;;5113997;28;20051;-63
2022/03/26 00:16:08;;;;;;;19.70;12.40;;;9.30;72.00;;;;;;5113497;28;20042;-64
2022/03/26 00:19:12;;;;;;;20.73;12.55;;;9.20;72.80;;;;;;5113530;28;20055;-65
2022/03/26 00:22:16;;;;;;;22.83;12.48;;;9.10;73.20;;;;;;5113895;28;20054;-64
2022/03/26 00:25:20;;;;;;;19.77;12.10;;;9.00;73.10;;;;;;5112914;28;20050;-64
2022/03/26 00:28:25;;;;;;;29.00;16.52;;;9.00;73.00;;;;;;5113662;28;20046;-64
2022/03/26 00:31:33;;;;;;;29.20;16.70;;;8.90;73.60;;;;;;5110602;28;20054;-64
2022/03/26 00:34:37;;;;;;;23.85;14.82;;;8.90;74.40;;;;;;5113976;28;20059;-64
2022/03/26 00:37:41;;;;;;;22.60;14.43;;;8.90;74.20;;;;;;5113064;28;20058;-65
2022/03/26 00:40:45;;;;;;;28.08;15.32;;;8.90;74.70;;;;;;5113340;28;20043;-64
2022/03/26 00:43:50;;;;;;;51.90;24.20;;;8.90;74.90;;;;;;5113449;28;20050;-64
2022/03/26 00:46:54;;;;;;;37.53;20.30;;;8.90;75.60;;;;;;5113112;28;20046;-64
2022/03/26 00:49:58;;;;;;;60.53;24.83;;;8.80;76.50;;;;;;5113018;28;20501;-64
2022/03/26 00:53:02;;;;;;;61.75;26.58;;;8.70;77.40;;;;;;5113765;28;20058;-64
2022/03/26 00:56:06;;;;;;;56.15;24.42;;;8.60;78.00;;;;;;5112803;28;20054;-64
2022/03/26 00:59:10;;;;;;;32.03;17.35;;;8.60;78.60;;;;;;5113159;28;20512;-64
2022/03/26 01:02:14;;;;;;;25.23;15.32;;;8.50;79.50;;;;;;5113338;28;20417;-64
2022/03/26 01:05:19;;;;;;;29.75;16.40;;;8.50;80.40;;;;;;5113077;28;20035;-63
2022/03/26 01:08:23;;;;;;;61.65;25.65;;;8.50;81.00;;;;;;5112540;28;20358;-64
2022/03/26 01:11:27;;;;;;;39.05;18.60;;;8.40;81.00;;;;;;5113163;28;20043;-64
2022/03/26 01:14:31;;;;;;;24.65;14.18;;;8.50;80.90;;;;;;5113255;28;20046;-64
2022/03/26 01:17:36;;;;;;;22.45;14.90;;;8.40;80.70;;;;;;5112223;28;20043;-64
2022/03/26 01:20:40;;;;;;;24.80;14.48;;;8.40;80.50;;;;;;5112333;28;20070;-64
2022/03/26 01:23:44;;;;;;;22.52;13.45;;;8.30;80.30;;;;;;5112709;28;20050;-64
2022/03/26 01:26:49;;;;;;;21.35;12.57;;;8.30;80.50;;;;;;5111881;28;20043;-64
2022/03/26 01:29:53;;;;;;;21.52;12.40;;;8.30;80.30;;;;;;5112186;28;20662;-65
2022/03/26 01:32:57;;;;;;;21.92;13.82;;;8.30;80.20;;;;;;5112599;28;20051;-64
2022/03/26 01:36:02;;;;;;;22.35;13.70;;;8.30;80.10;;;;;;5112074;28;20043;-64
2022/03/26 01:39:06;;;;;;;26.40;14.88;;;8.20;80.70;;;;;;5112430;28;20046;-64
2022/03/26 01:42:10;;;;;;;25.27;14.90;;;8.20;80.90;;;;;;5111473;28;20398;-64
2022/03/26 01:45:14;;;;;;;20.33;13.40;;;8.20;81.60;;;;;;5112478;28;20042;-64
2022/03/26 01:48:18;;;;;;;21.70;13.60;;;8.10;81.30;;;;;;5111655;28;20051;-64
2022/03/26 01:51:22;;;;;;;21.73;13.20;;;8.10;80.80;;;;;;5111942;28;20039;-64
2022/03/26 01:54:27;;;;;;;26.25;13.75;;;8.00;80.90;;;;;;5112302;28;20051;-65
2022/03/26 01:57:31;;;;;;;20.75;13.75;;;8.00;81.70;;;;;;5111678;28;20058;-64
2022/03/26 02:00:35;;;;;;;21.95;12.75;;;7.90;81.70;;;;;;5111925;28;20051;-64
2022/03/26 02:03:40;;;;;;;20.30;13.45;;;7.90;81.30;;;;;;5111990;28;20486;-63
2022/03/26 02:06:43;;;;;;;23.38;14.90;;;7.90;81.40;;;;;;5111497;28;20047;-64
2022/03/26 02:09:48;;;;;;;24.25;13.77;;;7.90;81.70;;;;;;5112006;28;20035;-64
2022/03/26 02:12:52;;;;;;;24.40;13.73;;;7.90;82.00;;;;;;5111897;28;20062;-64
2022/03/26 02:15:56;;;;;;;27.42;14.60;;;7.90;82.90;;;;;;5111989;28;20497;-64
2022/03/26 02:19:00;;;;;;;19.10;11.68;;;7.80;83.30;;;;;;5111975;28;20039;-64
2022/03/26 02:22:05;;;;;;;18.55;11.38;;;7.80;82.30;;;;;;5111231;28;20389;-64
2022/03/26 02:25:10;;;;;;;19.38;11.98;;;7.80;81.50;;;;;;5111969;28;20378;-64
2022/03/26 02:28:16;;;;;;;19.50;11.23;;;7.90;81.50;;;;;;5111353;28;20489;-64
2022/03/26 02:31:20;;;;;;;20.45;11.07;;;8.00;81.40;;;;;;5110845;28;20043;-64
2022/03/26 02:34:24;;;;;;;18.83;10.88;;;8.00;81.30;;;;;;5112092;28;20050;-64
2022/03/26 02:37:30;;;;;;;19.50;12.52;;;7.90;80.90;;;;;;5111032;28;20394;-64
2022/03/26 02:40:35;;;;;;;21.67;12.00;;;7.90;81.70;;;;;;5110108;28;20505;-64
2022/03/26 02:43:39;;;;;;;21.17;12.85;;;7.90;81.50;;;;;;5111408;28;20046;-64
2022/03/26 02:46:45;;;;;;;23.75;13.65;;;7.80;82.10;;;;;;5110696;28;20042;-64
2022/03/26 02:49:50;;;;;;;18.98;12.15;;;7.80;82.70;;;;;;5111305;28;20038;-64
2022/03/26 02:52:53;;;;;;;21.05;11.98;;;7.80;82.60;;;;;;5111380;28;20050;-64
2022/03/26 02:55:57;;;;;;;19.38;10.50;;;7.80;81.90;;;;;;5111292;28;20401;-65
2022/03/26 02:59:01;;;;;;;16.77;9.57;;;7.80;81.30;;;;;;5111192;28;20042;-64
2022/03/26 03:02:09;;;;;;;19.13;10.23;;;7.80;80.70;;;;;;5111004;28;20042;-64
2022/03/26 03:05:13;;;;;;;18.13;10.05;;;7.70;80.70;;;;;;5111062;28;20047;-64
2022/03/26 03:08:18;;;;;;;18.30;10.00;;;7.70;80.80;;;;;;5110645;28;20046;-64
2022/03/26 03:11:22;;;;;;;20.30;11.02;;;7.80;81.00;;;;;;5111117;28;20046;-64
2022/03/26 03:14:26;;;;;;;20.00;10.10;;;7.80;81.00;;;;;;5111442;28;20378;-64
2022/03/26 03:17:39;;;;;;;15.80;9.93;;;7.80;80.80;;;;;;5110581;28;20054;-64
2022/03/26 03:20:42;;;;;;;20.60;12.57;;;7.80;80.90;;;;;;5110715;28;20046;-63
2022/03/26 03:23:48;;;;;;;21.80;13.10;;;7.80;82.10;;;;;;5111002;28;20042;-64
2022/03/26 03:26:51;;;;;;;20.63;13.15;;;7.70;82.90;;;;;;5110719;28;20736;-64
2022/03/26 03:29:56;;;;;;;23.02;13.45;;;7.70;83.70;;;;;;5111358;28;20063;-64
2022/03/26 03:33:00;;;;;;;22.58;12.98;;;7.60;83.90;;;;;;5111082;28;20058;-64
2022/03/26 03:36:05;;;;;;;22.95;12.55;;;7.60;83.80;;;;;;5111068;28;20509;-64
2022/03/26 03:39:09;;;;;;;30.08;13.50;;;7.50;84.40;;;;;;5111317;28;20386;-64
2022/03/26 03:42:13;;;;;;;23.40;11.93;;;7.40;84.50;;;;;;5113231;28;20497;-64
2022/03/26 03:45:17;;;;;;;40.08;19.35;;;7.30;84.50;;;;;;5115380;28;20481;-64
2022/03/26 03:48:21;;;;;;;23.20;13.85;;;7.30;84.80;;;;;;5114307;28;21043;-64
2022/03/26 03:51:25;;;;;;;43.53;22.45;;;7.20;85.00;;;;;;5114862;28;20050;-64
2022/03/26 03:54:29;;;;;;;22.15;13.27;;;7.20;85.30;;;;;;5115015;28;20051;-64
2022/03/26 03:57:33;;;;;;;21.63;13.77;;;7.00;86.10;;;;;;5113806;28;20675;-63
2022/03/26 04:00:37;;;;;;;26.58;14.70;;;6.90;88.50;;;;;;5114865;28;20043;-64
2022/03/26 04:03:41;;;;;;;25.95;14.70;;;6.80;89.60;;;;;;5114291;28;20047;-64
2022/03/26 04:06:45;;;;;;;25.38;14.57;;;6.70;90.10;;;;;;5114043;28;20048;-63
2022/03/26 04:09:49;;;;;;;22.05;14.25;;;6.70;90.00;;;;;;5114580;28;20065;-63
2022/03/26 04:12:53;;;;;;;30.15;16.67;;;6.60;90.30;;;;;;5114234;28;20050;-64
2022/03/26 04:15:57;;;;;;;29.65;17.17;;;6.50;90.30;;;;;;5114595;28;20090;-64
2022/03/26 04:19:01;;;;;;;24.08;14.95;;;6.40;90.80;;;;;;5114411;28;20428;-63
2022/03/26 04:22:06;;;;;;;21.83;14.63;;;6.40;91.10;;;;;;5114097;28;20410;-64
2022/03/26 04:25:11;;;;;;;24.42;13.80;;;6.40;90.90;;;;;;5114412;28;20058;-64
2022/03/26 04:28:15;;;;;;;22.17;13.75;;;6.50;90.60;;;;;;5113572;28;20058;-64
2022/03/26 04:31:19;;;;;;;24.10;14.43;;;6.50;90.40;;;;;;5114309;28;20046;-64
2022/03/26 04:34:23;;;;;;;26.25;13.95;;;6.60;90.90;;;;;;5113889;28;20054;-64
2022/03/26 04:37:28;;;;;;;21.70;13.82;;;6.70;90.90;;;;;;5113588;28;20045;-63
2022/03/26 04:40:32;;;;;;;28.13;16.13;;;6.70;90.60;;;;;;5114271;28;20062;-63
2022/03/26 04:43:36;;;;;;;24.48;13.98;;;6.70;90.60;;;;;;5113736;28;20043;-65
2022/03/26 04:46:39;;;;;;;24.67;13.07;;;6.70;90.60;;;;;;5113431;28;20055;-63
2022/03/26 04:49:43;;;;;;;23.85;15.02;;;6.60;90.70;;;;;;5112751;28;20047;-64
2022/03/26 04:52:48;;;;;;;19.38;11.68;;;6.60;90.80;;;;;;5112945;28;20047;-64
2022/03/26 04:55:52;;;;;;;27.98;12.65;;;6.50;90.80;;;;;;5114024;28;20050;-65
2022/03/26 04:58:57;;;;;;;19.35;12.40;;;6.50;90.90;;;;;;5113786;28;20670;-64
2022/03/26 05:02:01;;;;;;;30.70;15.70;;;6.40;91.30;;;;;;5113138;28;20046;-63
2022/03/26 05:05:06;;;;;;;25.88;12.35;;;6.40;91.50;;;;;;5112614;28;20050;-64
2022/03/26 05:08:10;;;;;;;21.42;13.30;;;6.30;91.70;;;;;;5112493;28;20497;-64
2022/03/26 05:11:16;;;;;;;22.77;12.15;;;6.20;92.10;;;;;;5113142;28;20055;-63
2022/03/26 05:14:20;;;;;;;28.58;12.65;;;6.20;92.20;;;;;;5112557;28;20517;-64
2022/03/26 05:17:24;;;;;;;25.70;13.52;;;6.20;92.30;;;;;;5112426;28;20050;-64
2022/03/26 05:20:28;;;;;;;68.07;34.80;;;6.20;92.40;;;;;;5112804;28;20050;-64
2022/03/26 05:23:31;;;;;;;26.70;14.85;;;6.20;92.70;;;;;;5112556;28;20441;-64
2022/03/26 05:26:35;;;;;;;20.23;12.45;;;6.10;92.80;;;;;;5112163;28;20497;-64
2022/03/26 05:29:39;;;;;;;23.10;13.32;;;6.10;93.10;;;;;;5112720;28;20054;-64
2022/03/26 05:32:44;;;;;;;19.48;11.90;;;6.10;93.30;;;;;;5112173;28;20050;-64
2022/03/26 05:35:48;;;;;;;26.75;12.23;;;6.20;93.10;;;;;;5112598;28;20054;-63
2022/03/26 05:38:52;;;;;;;22.48;12.63;;;6.40;92.90;;;;;;5112393;28;20051;-63
2022/03/26 05:41:56;;;;;;;27.77;13.82;;;6.50;92.70;;;;;;5112606;28;20386;-64
2022/03/26 05:45:00;;;;;;;22.70;14.50;;;6.70;92.60;;;;;;5112560;28;20054;-64
2022/03/26 05:48:07;;;;;;;25.25;14.75;;;6.80;92.40;;;;;;5111907;28;20054;-63
2022/03/26 05:51:11;;;;;;;31.65;16.00;;;7.00;92.10;;;;;;5112298;28;20054;-64
2022/03/26 05:54:15;;;;;;;29.42;15.07;;;7.10;91.80;;;;;;5111995;28;20047;-64
2022/03/26 05:57:19;;;;;;;29.10;14.63;;;7.70;91.40;;;;;;5110713;28;20043;-64
2022/03/26 06:00:23;;;;;;;32.95;14.93;;;9.70;88.20;;;;;;5112127;28;20051;-64
2022/03/26 06:03:28;;;;;;;29.73;15.13;;;11.70;81.30;;;;;;5112022;28;20054;-64
2022/03/26 06:06:32;;;;;;;38.03;22.58;;;13.50;75.70;;;;;;5111443;28;20070;-65
2022/03/26 06:09:37;;;;;;;30.48;21.52;;;14.90;70.20;;;;;;5112091;28;20351;-64
2022/03/26 06:12:41;;;;;;;28.02;19.48;;;15.70;67.20;;;;;;5111987;28;20058;-64
2022/03/26 06:15:46;;;;;;;25.23;14.32;;;16.40;65.20;;;;;;5112333;28;20501;-64
2022/03/26 06:18:50;;;;;;;22.65;14.20;;;16.70;64.40;;;;;;5111789;28;20042;-65
2022/03/26 06:21:54;;;;;;;24.80;14.45;;;17.00;64.20;;;;;;5111852;28;20050;-64
2022/03/26 06:24:58;;;;;;;21.80;14.90;;;17.50;61.90;;;;;;5111616;28;20398;-64
2022/03/26 06:28:02;;;;;;;23.95;14.52;;;17.70;61.80;;;;;;5111114;28;20058;-64
2022/03/26 06:31:08;;;;;;;22.05;15.48;;;18.50;61.00;;;;;;5111608;28;20050;-64
2022/03/26 06:34:12;;;;;;;26.05;17.27;;;19.10;60.30;;;;;;5110879;28;20058;-64
2022/03/26 06:37:16;;;;;;;23.55;16.50;;;19.80;58.90;;;;;;5111197;28;20050;-65
2022/03/26 06:40:20;;;;;;;22.23;16.40;;;20.10;56.90;;;;;;5111388;28;20102;-65
2022/03/26 06:43:24;;;;;;;22.40;15.38;;;20.80;56.90;;;;;;5111275;28;20389;-65
2022/03/26 06:46:28;;;;;;;19.65;14.35;;;21.00;56.00;;;;;;5111054;28;20050;-64
2022/03/26 06:49:32;;;;;;;23.63;13.82;;;21.60;56.00;;;;;;5111774;28;20390;-65
2022/03/26 06:52:36;;;;;;;22.85;14.45;;;21.70;54.80;;;;;;5111302;28;20382;-65
2022/03/26 06:55:41;;;;;;;19.08;14.38;;;21.50;54.70;;;;;;5111327;28;20042;-65
2022/03/26 06:58:45;;;;;;;23.65;14.65;;;17.20;58.60;;;;;;5111568;28;20046;-65
2022/03/26 07:01:49;;;;;;;20.85;14.80;;;16.80;59.90;;;;;;5111521;28;20047;-65
2022/03/26 07:04:54;;;;;;;22.90;14.25;;;15.90;61.90;;;;;;5111138;28;20047;-64
2022/03/26 07:07:58;;;;;;;20.75;13.77;;;17.80;61.40;;;;;;5110453;28;20051;-65
2022/03/26 07:11:02;;;;;;;20.73;14.90;;;18.30;59.80;;;;;;5111444;28;20082;-65
2022/03/26 07:14:07;;;;;;;21.02;13.95;;;18.00;60.70;;;;;;5110854;28;20063;-65
2022/03/26 07:17:11;;;;;;;21.63;15.02;;;20.20;58.40;;;;;;5112852;28;20051;-64
2022/03/26 07:20:15;;;;;;;19.88;14.50;;;21.50;56.50;;;;;;5115455;28;20043;-62
2022/03/26 07:23:19;;;;;;;20.85;14.27;;;20.70;55.20;;;;;;5115305;28;20047;-65
2022/03/26 07:26:23;;;;;;;24.67;14.80;;;20.30;56.20;;;;;;5114524;28;20043;-64
2022/03/26 07:29:28;;;;;;;27.27;14.70;;;18.10;60.20;;;;;;5114837;28;20047;-65
2022/03/26 07:32:31;;;;;;;23.17;15.18;;;17.40;61.20;;;;;;5114950;28;20042;-65
2022/03/26 07:35:35;;;;;;;20.65;14.25;;;17.90;60.90;;;;;;5114430;28;20046;-64
2022/03/26 07:38:40;;;;;;;20.67;12.55;;;20.10;58.20;;;;;;5114762;28;20406;-65
2022/03/26 07:41:45;;;;;;;19.02;12.55;;;21.40;57.00;;;;;;5114639;28;20043;-65
2022/03/26 07:44:50;;;;;;;21.40;13.75;;;22.40;54.80;;;;;;5113873;28;20054;-65
2022/03/26 07:47:55;;;;;;;15.27;12.05;;;23.50;53.00;;;;;;5114370;28;20074;-64
2022/03/26 07:50:59;;;;;;;20.65;13.00;;;24.40;52.10;;;;;;5114761;28;20058;-65
2022/03/26 07:54:04;;;;;;;18.70;12.75;;;24.10;52.50;;;;;;5114616;28;20070;-65
2022/03/26 07:57:08;;;;;;;18.98;12.73;;;24.80;51.20;;;;;;5113925;28;20046;-62
2022/03/26 08:00:13;;;;;;;21.50;13.05;;;25.10;51.10;;;;;;5114526;28;20055;-63
2022/03/26 08:03:17;;;;;;;18.60;12.10;;;23.70;51.60;;;;;;5114254;28;20059;-63
2022/03/26 08:06:22;;;;;;;16.00;12.50;;;23.00;52.80;;;;;;5113691;28;20035;-63
2022/03/26 08:09:27;;;;;;;17.63;12.52;;;23.40;52.60;;;;;;5114105;28;20039;-64
2022/03/26 08:12:31;;;;;;;15.25;12.18;;;20.40;54.80;;;;;;5114159;28;20039;-64
2022/03/26 08:15:37;;;;;;;21.13;13.13;;;21.30;54.90;;;;;;5113793;28;20402;-64
2022/03/26 08:18:41;;;;;;;18.77;12.90;;;21.10;54.50;;;;;;5114271;28;20039;-65
2022/03/26 08:21:45;;;;;;;17.08;13.48;;;21.10;53.80;;;;;;5114298;28;20042;-64
2022/03/26 08:24:49;;;;;;;23.25;12.48;;;22.50;53.00;;;;;;5113966;28;20370;-65
2022/03/26 08:27:53;;;;;;;15.55;11.82;;;22.90;52.40;;;;;;5112580;28;20062;-65
2022/03/26 08:30:57;;;;;;;17.20;12.38;;;22.90;52.10;;;;;;5113363;28;20055;-65
2022/03/26 08:34:02;;;;;;;15.88;12.00;;;24.80;51.50;;;;;;5113613;28;20058;-65
2022/03/26 08:37:06;;;;;;;17.98;11.73;;;24.50;49.90;;;;;;5113044;28;20039;-65
2022/03/26 08:40:10;;;;;;;18.27;12.15;;;26.00;49.80;;;;;;5114018;28;20051;-65
2022/03/26 08:43:15;;;;;;;17.42;11.57;;;27.00;49.00;;;;;;5114283;28;20042;-65
2022/03/26 08:46:20;;;;;;;16.20;11.02;;;25.30;49.10;;;;;;5113021;28;20051;-71
2022/03/26 08:49:28;;;;;;;17.42;11.63;;;27.30;48.70;;;;;;5115184;28;20507;-71
2022/03/26 08:52:34;;;;;;;15.23;10.68;;;29.20;46.90;;;;;;5115153;28;20039;-63
2022/03/26 08:55:38;;;;;;;20.02;10.85;;;30.30;46.00;;;;;;5115003;28;20386;-64
2022/03/26 08:58:42;;;;;;;16.17;10.43;;;31.30;45.90;;;;;;5115316;28;20058;-64
2022/03/26 09:01:46;;;;;;;14.98;9.70;;;32.20;44.80;;;;;;5114306;28;20046;-64
2022/03/26 09:04:50;;;;;;;14.98;9.63;;;31.70;44.70;;;;;;5114308;28;20047;-63
2022/03/26 09:07:54;;;;;;;16.27;10.27;;;32.40;43.00;;;;;;5113213;28;20042;-71
2022/03/26 09:10:58;;;;;;;14.20;9.77;;;31.40;43.10;;;;;;5113170;28;20038;-71
2022/03/26 09:14:02;;;;;;;15.23;10.13;;;30.70;43.40;;;;;;5113986;28;20038;-71
2022/03/26 09:17:06;;;;;;;13.13;9.70;;;29.90;44.00;;;;;;5113882;28;20374;-64
2022/03/26 09:20:11;;;;;;;15.48;9.00;;;28.90;45.70;;;;;;5114415;28;20055;-72
2022/03/26 09:23:15;;;;;;;13.95;8.52;;;30.70;43.50;;;;;;5112994;28;20050;-64
2022/03/26 09:26:19;;;;;;;17.98;8.00;;;30.50;43.00;;;;;;5111949;28;20047;-64
2022/03/26 09:29:23;;;;;;;13.43;8.55;;;33.00;40.90;;;;;;5112482;28;20493;-64
2022/03/26 09:32:27;;;;;;;8.85;7.38;;;32.60;39.80;;;;;;5112742;28;20050;-64
2022/03/26 09:35:32;;;;;;;13.45;8.20;;;30.40;41.70;;;;;;5112569;28;20055;-65
2022/03/26 09:38:36;;;;;;;16.17;8.18;;;30.40;41.40;;;;;;5112894;28;20070;-63
2022/03/26 09:41:40;;;;;;;8.68;7.25;;;32.00;41.60;;;;;;5112906;28;20046;-64
2022/03/26 09:44:44;;;;;;;9.30;7.07;;;31.90;40.50;;;;;;5112382;28;20050;-63
2022/03/26 09:47:48;;;;;;;17.33;7.75;;;33.70;39.20;;;;;;5111443;28;20374;-63
2022/03/26 09:50:53;;;;;;;10.82;7.60;;;33.80;38.90;;;;;;5112416;28;20054;-65
2022/03/26 09:53:57;;;;;;;12.32;7.32;;;34.30;38.30;;;;;;5112212;28;20043;-63
2022/03/26 09:57:01;;;;;;;9.07;7.00;;;35.60;39.40;;;;;;5111545;28;20050;-63
2022/03/26 10:00:07;;;;;;;12.30;7.35;;;35.20;38.90;;;;;;5112129;28;20040;-63
2022/03/26 10:03:16;;;;;;;;;;;37.20;39.20;;;;;;5112676;28;20505;-64
2022/03/26 10:06:24;;;;;;;11.85;7.45;;;38.80;38.60;;;;;;5112570;28;19922;-64
2022/03/26 10:09:36;;;;;;;11.68;7.07;;;39.80;38.40;;;;;;5113419;28;20062;-64
2022/03/26 10:12:42;;;;;;;16.58;7.95;;;40.50;38.00;;;;;;5114234;28;20050;-71
2022/03/26 10:16:11;;;;;;;9.73;6.70;;;41.10;37.60;;;;;;5112817;28;20042;-71
2022/03/26 10:19:21;;;;;;;13.52;7.22;;;41.60;37.60;;;;;;5112803;28;20054;-71
2022/03/26 10:22:36;;;;;;;8.73;6.45;;;40.90;37.20;;;;;;5113103;28;20045;-71
2022/03/26 10:25:40;;;;;;;11.38;7.57;;;38.60;36.10;;;;;;5111361;28;20077;-73
2022/03/26 10:28:50;;;;;;;10.60;7.50;;;34.10;37.90;;;;;;5112061;28;20038;-72
2022/03/26 10:35:25;;;;;;;10.65;7.43;;;34.90;39.60;;;;;;5112729;28;20047;-72
2022/03/26 10:38:33;;;;;;;8.77;6.50;;;37.50;38.80;;;;;;5112508;28;20058;-66
2022/03/26 10:41:38;;;;;;;8.55;6.50;;;38.00;37.40;;;;;;5113711;28;20050;-66
2022/03/26 10:48:25;;;;;;;11.35;6.78;;;38.00;36.50;;;;;;5111047;28;20046;-72
2022/03/26 10:51:35;;;;;;;7.60;6.07;;;35.70;36.90;;;;;;5112525;28;20042;-66
2022/03/26 10:54:40;;;;;;;11.20;6.47;;;36.70;36.90;;;;;;5112285;28;20042;-70
2022/03/26 10:57:46;;;;;;;9.20;5.75;;;38.70;37.00;;;;;;5111031;28;20039;-65
2022/03/26 11:00:50;;;;;;;10.15;5.82;;;39.50;36.70;;;;;;5112647;28;20505;-72
2022/03/26 11:03:54;;;;;;;9.32;5.80;;;41.10;36.20;;;;;;5112344;28;20043;-72
2022/03/26 11:06:58;;;;;;;8.85;5.72;;;42.00;35.50;;;;;;5110978;28;20046;-71
2022/03/26 11:10:05;;;;;;;9.07;5.97;;;41.10;35.40;;;;;;5111553;28;20492;-72
2022/03/26 11:13:12;;;;;;;14.07;5.72;;;39.70;35.20;;;;;;5111665;28;20047;-72
2022/03/26 11:16:35;;;;;;;8.00;5.82;;;40.80;35.60;;;;;;5111940;28;20043;-66
2022/03/26 11:20:26;;;;;;;7.50;5.50;;;39.30;35.60;;;;;;5111909;28;20055;-65
2022/03/26 11:23:42;;;;;;;;;;;38.40;35.90;;;;;;5112184;28;20046;-72
2022/03/26 11:27:21;;;;;;;8.20;6.18;;;39.50;36.00;;;;;;5111301;28;19923;-65
2022/03/26 11:30:28;;;;;;;8.77;5.90;;;35.70;35.50;;;;;;5111648;28;20051;-64
2022/03/26 11:33:38;;;;;;;11.25;7.20;;;33.10;36.70;;;;;;5111615;28;20624;-64
2022/03/26 11:36:43;;;;;;;8.43;6.57;;;30.70;37.90;;;;;;5098675;28;20027;-64
2022/03/26 11:39:51;;;;;;;11.70;6.07;;;33.70;38.10;;;;;;5111779;28;20043;-72
2022/03/26 11:42:55;;;;;;;16.55;6.45;;;36.10;37.30;;;;;;5111478;28;20054;-65
2022/03/26 11:53:10;;;;;;;10.18;6.88;;;30.60;39.10;;;;;;5113244;28;20055;-72
2022/03/26 11:56:27;;;;;;;9.82;6.85;;;34.20;37.90;;;;;;5111115;28;20050;-73
2022/03/26 11:59:38;;;;;;;11.38;6.90;;;31.40;36.40;;;;;;5112632;28;20054;-72
2022/03/26 12:02:52;;;;;;;8.82;6.43;;;34.10;37.70;;;;;;5113462;28;20071;-72
2022/03/26 12:09:35;;;;;;;12.25;7.20;;;33.80;36.40;;;;;;5114886;28;20046;-72
2022/03/26 12:12:48;;;;;;;13.13;7.50;;;29.70;38.70;;;;;;5114822;28;20038;-64
2022/03/26 12:16:06;;;;;;;11.50;7.28;;;29.10;38.20;;;;;;5114841;28;20117;-71
2022/03/26 12:19:09;;;;;;;11.77;7.45;;;28.10;38.60;;;;;;5114427;28;20051;-73
2022/03/26 12:22:28;;;;;;;9.90;7.38;;;28.60;37.30;;;;;;5114970;28;20050;-73
2022/03/26 12:25:51;;;;;;;10.98;7.18;;;28.00;38.00;;;;;;5114285;28;20055;-64
2022/03/26 12:28:54;;;;;;;11.88;7.80;;;27.80;38.80;;;;;;5113789;28;20043;-63
2022/03/26 12:31:59;;;;;;;14.85;7.90;;;25.90;38.20;;;;;;5114605;28;20043;-72
2022/03/26 12:35:06;;;;;;;14.80;8.50;;;25.90;39.00;;;;;;5113839;28;20046;-63
2022/03/26 12:38:10;;;;;;;13.20;7.65;;;24.90;39.00;;;;;;5113568;28;20034;-63
2022/03/26 12:41:15;;;;;;;13.90;8.27;;;25.10;40.40;;;;;;5114184;28;20042;-73
2022/03/26 12:44:20;;;;;;;11.80;8.30;;;26.30;39.40;;;;;;5113847;28;20042;-72
2022/03/26 12:47:26;;;;;;;11.52;7.25;;;29.30;38.20;;;;;;5112367;28;20039;-72
2022/03/26 12:50:37;;;;;;;10.98;6.80;;;26.60;38.80;;;;;;5114774;28;20485;-67
2022/03/26 12:53:41;;;;;;;12.67;7.73;;;27.70;38.30;;;;;;5111583;28;20043;-72
2022/03/26 12:56:49;;;;;;;11.02;7.45;;;27.60;38.20;;;;;;5109113;28;20473;-73
2022/03/26 12:59:55;;;;;;;13.73;7.80;;;28.80;37.80;;;;;;5109355;28;20047;-73
2022/03/26 13:03:07;;;;;;;13.15;7.95;;;29.10;37.70;;;;;;5103807;28;20039;-64
2022/03/26 13:06:14;;;;;;;12.35;7.72;;;26.80;38.60;;;;;;5104093;28;20038;-72
2022/03/26 13:09:18;;;;;;;17.13;7.97;;;26.00;39.00;;;;;;5114038;28;20043;-66
2022/03/26 13:12:29;;;;;;;9.43;7.53;;;26.10;38.30;;;;;;5114441;28;20043;-72
2022/03/26 13:15:34;;;;;;;;;;;26.30;38.70;;;;;;5114242;28;20054;-73
2022/03/26 13:19:00;;;;;;;11.02;7.10;;;26.60;38.70;;;;;;5114165;28;19914;-75
2022/03/26 13:22:05;;;;;;;11.82;7.43;;;26.60;38.70;;;;;;5113099;28;20050;-74
2022/03/26 13:25:09;;;;;;;15.77;8.52;;;28.30;38.20;;;;;;5113085;28;20047;-63
2022/03/26 13:28:19;;;;;;;12.85;7.90;;;26.00;39.30;;;;;;5102236;28;20394;-63
2022/03/26 13:31:24;;;;;;;12.75;7.55;;;25.30;38.90;;;;;;5101416;28;20039;-64
2022/03/26 13:34:34;;;;;;;13.18;7.63;;;26.00;40.50;;;;;;5091631;28;20039;-65
2022/03/26 13:37:45;;;;;;;10.40;7.72;;;24.60;40.10;;;;;;5092363;28;20035;-72
2022/03/26 13:40:49;;;;;;;10.97;7.50;;;24.30;41.20;;;;;;5091919;28;20371;-65
2022/03/26 13:43:56;;;;;;;9.57;7.25;;;26.00;41.50;;;;;;5105183;28;20297;-72
2022/03/26 13:47:00;;;;;;;10.68;7.38;;;26.70;40.20;;;;;;5109109;28;20041;-70
2022/03/26 13:50:13;;;;;;;12.43;8.05;;;26.40;39.80;;;;;;5108696;28;20042;-73
2022/03/26 13:53:28;;;;;;;13.82;7.18;;;26.00;38.30;;;;;;5109682;28;20058;-72
2022/03/26 13:56:35;;;;;;;12.68;7.32;;;25.80;39.70;;;;;;5103574;28;20051;-71
2022/03/26 13:59:46;;;;;;;13.55;7.75;;;25.10;40.10;;;;;;5098325;28;20051;-72
2022/03/26 14:02:51;;;;;;;11.65;7.45;;;25.30;40.10;;;;;;5109828;28;20050;-65
2022/03/26 14:05:56;;;;;;;10.05;7.47;;;25.00;40.40;;;;;;5104842;28;20038;-72
2022/03/26 14:09:02;;;;;;;11.25;7.57;;;25.30;40.30;;;;;;5111042;28;20038;-65
2022/03/26 14:12:06;;;;;;;13.07;7.55;;;27.00;40.70;;;;;;5108605;28;20055;-72
2022/03/26 14:15:11;;;;;;;12.20;7.60;;;28.00;39.00;;;;;;5105732;28;20047;-72
2022/03/26 14:18:16;;;;;;;9.35;6.85;;;26.90;38.90;;;;;;5100191;28;20378;-71
2022/03/26 14:21:21;;;;;;;11.90;7.15;;;25.80;39.40;;;;;;5099553;28;20051;-72
2022/03/26 14:24:25;;;;;;;11.50;8.18;;;25.40;39.60;;;;;;5110887;28;20046;-73
2022/03/26 14:27:29;;;;;;;10.50;7.82;;;23.70;41.20;;;;;;5108953;28;20046;-72
2022/03/26 14:30:34;;;;;;;10.80;7.93;;;24.60;41.00;;;;;;5109892;28;20058;-71
2022/03/26 14:33:38;;;;;;;12.68;7.80;;;24.10;41.50;;;;;;5106555;28;20398;-72
2022/03/26 14:36:42;;;;;;;15.75;7.90;;;23.90;41.60;;;;;;5107277;28;20058;-72
2022/03/26 14:39:46;;;;;;;10.02;7.90;;;24.00;42.50;;;;;;5107824;28;20047;-71
2022/03/26 14:42:50;;;;;;;10.52;7.28;;;24.20;42.30;;;;;;5110858;28;20039;-71
2022/03/26 14:45:58;;;;;;;14.25;8.07;;;24.40;42.00;;;;;;5103081;28;20050;-73
2022/03/26 14:49:02;;;;;;;11.20;7.68;;;23.40;42.20;;;;;;5110339;28;20121;-73
2022/03/26 14:52:07;;;;;;;16.45;8.57;;;23.40;42.80;;;;;;5091216;28;20050;-73
2022/03/26 14:55:12;;;;;;;11.68;8.40;;;22.90;41.90;;;;;;5090894;28;20050;-73
2022/03/26 14:58:19;;;;;;;14.65;7.68;;;22.90;41.60;;;;;;5103811;28;20039;-71
2022/03/26 15:01:23;;;;;;;12.18;7.95;;;23.50;42.90;;;;;;5098963;28;20051;-72
2022/03/26 15:04:27;;;;;;;11.00;8.20;;;24.40;42.30;;;;;;5106969;28;20039;-72
2022/03/26 15:07:33;;;;;;;11.70;8.00;;;24.70;41.10;;;;;;5089368;28;20039;-72
2022/03/26 15:10:37;;;;;;;12.18;7.88;;;24.60;41.80;;;;;;5110562;28;20039;-72
2022/03/26 15:13:42;;;;;;;11.70;7.75;;;24.80;41.10;;;;;;5099190;28;20043;-72
2022/03/26 15:16:46;;;;;;;12.60;7.47;;;24.40;41.80;;;;;;5107122;28;20050;-72
2022/03/26 15:19:50;;;;;;;12.20;7.70;;;24.10;41.60;;;;;;5090351;28;20371;-72
2022/03/26 15:22:54;;;;;;;16.23;8.13;;;22.50;41.60;;;;;;5090798;28;20051;-71
2022/03/26 15:25:58;;;;;;;11.50;7.22;;;22.50;42.40;;;;;;5102098;28;20047;-71
2022/03/26 15:29:03;;;;;;;13.55;7.90;;;23.10;43.10;;;;;;5106772;28;20120;-71
2022/03/26 15:32:09;;;;;;;13.68;7.57;;;23.50;42.40;;;;;;5102851;28;20055;-71
2022/03/26 15:35:13;;;;;;;10.00;7.28;;;23.80;42.60;;;;;;5102160;28;20043;-71
2022/03/26 15:38:18;;;;;;;19.95;7.68;;;23.60;41.70;;;;;;5103711;28;20057;-72
2022/03/26 15:41:23;;;;;;;13.82;6.82;;;23.40;42.50;;;;;;5108367;28;20389;-72
2022/03/26 15:44:27;;;;;;;15.60;7.63;;;22.90;41.60;;;;;;5099108;28;20054;-72
2022/03/26 15:47:31;;;;;;;13.05;7.60;;;22.00;43.20;;;;;;5108332;28;20043;-71
2022/03/26 15:50:35;;;;;;;11.98;7.05;;;22.10;43.70;;;;;;5114117;28;20047;-72
2022/03/26 15:53:39;;;;;;;9.32;7.28;;;21.80;44.10;;;;;;5113534;28;20050;-72
2022/03/26 15:56:44;;;;;;;17.75;7.75;;;21.80;43.50;;;;;;5108707;28;20485;-71
2022/03/26 15:59:47;;;;;;;17.10;7.50;;;21.70;43.60;;;;;;5104746;28;20043;-72
2022/03/26 16:02:51;;;;;;;11.23;8.60;;;21.60;43.40;;;;;;5110351;28;20470;-72
2022/03/26 16:05:55;;;;;;;10.40;7.15;;;21.50;44.40;;;;;;5107357;28;20358;-71
2022/03/26 16:09:00;;;;;;;9.98;7.13;;;21.50;44.60;;;;;;5110258;28;20050;-72